Observations for BIRMINGHAM AIRPORT, United Kingdom (EGBB)

EGBB 280450Z 03005KT 8000 SCT004 OVC007 14/13 Q1000 
EGBB 280420Z 02005KT 8000 SCT004 OVC007 13/13 Q1000 
EGBB 280350Z 02005KT 7000 SCT004 OVC007 13/13 Q1000 
EGBB 280320Z 02005KT 350V050 7000 -RA SCT003 OVC006 13/13 Q1000 
EGBB 280250Z 02005KT 6000 -RA SCT003 OVC006 13/13 Q1000 RERA
EGBB 280220Z 01005KT 5000 RA SCT004 OVC006 13/13 Q1000  
EGBB 280150Z 03006KT 5000 RA SCT004 OVC006 13/13 Q1001  
EGBB 280120Z 03005KT 6000 -RA OVC005 13/13 Q1001 RERA   
EGBB 280050Z 03005KT 5000 RA OVC005 13/13 Q1002 
EGBB 280020Z 05005KT 5000 RA OVC005 13/13 Q1002 
EGBB 272350Z 07006KT 5000 RA OVC006 14/13 Q1002 
EGBB 272320Z 06006KT 030V090 6000 OVC006 14/13 Q1002
EGBB 272250Z 08007KT 6000 OVC007 14/13 Q1003
EGBB 272220Z 08007KT 7000 OVC008 14/13 Q1003
EGBB 272150Z 09008KT 7000 OVC008 14/13 Q1003
EGBB 272120Z 08007KT 7000 OVC008 15/13 Q1003
EGBB 272050Z 09007KT 050V120 8000 OVC010 15/13 Q1003
EGBB 272020Z 08008KT 7000 BKN010 15/13 Q1003
EGBB 271950Z 08009KT 9999 BKN012 16/13 Q1003
EGBB 271920Z 08008KT 9999 BKN014 16/13 Q1003
EGBB 271850Z 07008KT 9999 BKN016CB 16/13 Q1004  
EGBB 271820Z 08007KT 060V170 9999 OVC016CB 17/13 Q1004  
EGBB 271750Z 10007KT 9999 OVC016 17/13 Q1004
EGBB 271720Z 11006KT 9999 BKN020 18/14 Q1004
EGBB 271650Z 11007KT 080V150 9999 SCT020 BKN032 18/13 Q1004 
EGBB 271620Z 12008KT 9999 SCT018 BKN040 OVC048 17/13 Q1004  
EGBB 271550Z 11008KT 9999 BKN024 17/13 Q1005
EGBB 271520Z 12008KT 080V160 9999 BKN024 17/13 Q1005
EGBB 271450Z 10008KT 9999 BKN018 17/13 Q1005
EGBB 271420Z 10010KT 060V120 9999 BKN021 17/13 Q1005
EGBB 271350Z 09010KT 070V130 9999 BKN020 18/13 Q1005
EGBB 271320Z 09010KT 050V130 9999 OVC024 18/13 Q1006
EGBB 271250Z 09010KT 060V120 9999 BKN018 18/13 Q1006
EGBB 271220Z 09010KT 9999 SCT018 17/13 Q1006
EGBB 271150Z 09011KT 050V110 9999 SCT017 BKN048 17/12 Q1007 
EGBB 271120Z 09009KT 9999 BKN035 17/12 Q1007
EGBB 271050Z 08006KT 020V120 9999 BKN048 16/12 Q1007
EGBB 271020Z 09008KT 9999 BKN045 15/11 Q1008
EGBB 270950Z 08008KT 060V120 9999 BKN045 15/11 Q1008
EGBB 270920Z 08005KT 050V120 9999 BKN044 15/10 Q1008
EGBB 270850Z 06005KT 9999 BKN045 15/10 Q1008
EGBB 270820Z 12005KT 070V160 9999 BKN045 15/09 Q1008
EGBB 270750Z 13008KT 9999 BKN046 15/09 Q1008
EGBB 270720Z 12008KT 090V150 9999 BKN045 15/09 Q1008
EGBB 270650Z 12009KT 9999 BKN039 14/09 Q1009
EGBB 270620Z 13007KT 090V150 CAVOK 14/10 Q1009  
EGBB 270550Z 12007KT CAVOK 14/10 Q1009  
EGBB 270520Z 10006KT 090V160 9999 BKN045 14/10 Q1009
EGBB 270450Z 13004KT 9999 BKN039 OVC048 13/11 Q1009